sensor_id;sensor_type;location;lat;lon;timestamp;P1;durP1;ratioP1;P2;durP2;ratioP2
15049;SDS011;7622;42.724;23.250;2023-05-07T00:00:18;8.07;;;7.30;;
15049;SDS011;7622;42.724;23.250;2023-05-07T00:02:47;10.07;;;6.97;;
15049;SDS011;7622;42.724;23.250;2023-05-07T00:05:13;8.00;;;7.07;;
15049;SDS011;7622;42.724;23.250;2023-05-07T00:07:40;9.00;;;7.27;;
15049;SDS011;7622;42.724;23.250;2023-05-07T00:10:07;8.23;;;6.93;;
15049;SDS011;7622;42.724;23.250;2023-05-07T00:12:34;6.80;;;6.17;;
15049;SDS011;7622;42.724;23.250;2023-05-07T00:15:01;7.73;;;6.83;;
15049;SDS011;7622;42.724;23.250;2023-05-07T00:17:28;7.57;;;6.87;;
15049;SDS011;7622;42.724;23.250;2023-05-07T00:19:57;8.27;;;5.97;;
15049;SDS011;7622;42.724;23.250;2023-05-07T00:22:23;7.50;;;6.83;;
15049;SDS011;7622;42.724;23.250;2023-05-07T00:24:50;6.97;;;6.27;;
15049;SDS011;7622;42.724;23.250;2023-05-07T00:27:17;10.33;;;6.90;;
15049;SDS011;7622;42.724;23.250;2023-05-07T00:29:44;6.97;;;6.43;;
15049;SDS011;7622;42.724;23.250;2023-05-07T00:32:10;7.43;;;6.73;;
15049;SDS011;7622;42.724;23.250;2023-05-07T00:34:37;9.20;;;6.87;;
15049;SDS011;7622;42.724;23.250;2023-05-07T00:37:06;6.93;;;6.10;;
15049;SDS011;7622;42.724;23.250;2023-05-07T00:39:34;8.30;;;7.50;;
15049;SDS011;7622;42.724;23.250;2023-05-07T00:42:01;6.97;;;6.37;;
15049;SDS011;7622;42.724;23.250;2023-05-07T00:44:28;7.47;;;6.77;;
15049;SDS011;7622;42.724;23.250;2023-05-07T00:46:55;7.70;;;6.90;;
15049;SDS011;7622;42.724;23.250;2023-05-07T00:49:22;7.53;;;6.83;;
15049;SDS011;7622;42.724;23.250;2023-05-07T00:51:53;8.37;;;7.10;;
15049;SDS011;7622;42.724;23.250;2023-05-07T00:54:21;7.90;;;7.10;;
15049;SDS011;7622;42.724;23.250;2023-05-07T00:56:48;7.97;;;7.07;;
15049;SDS011;7622;42.724;23.250;2023-05-07T00:59:15;8.20;;;7.40;;
15049;SDS011;7622;42.724;23.250;2023-05-07T01:01:42;7.10;;;6.40;;
15049;SDS011;7622;42.724;23.250;2023-05-07T01:04:09;9.83;;;6.63;;
15049;SDS011;7622;42.724;23.250;2023-05-07T01:06:35;11.57;;;6.53;;
15049;SDS011;7622;42.724;23.250;2023-05-07T01:09:02;6.60;;;6.10;;
15049;SDS011;7622;42.724;23.250;2023-05-07T01:11:32;7.80;;;6.93;;
15049;SDS011;7622;42.724;23.250;2023-05-07T01:13:59;7.80;;;7.17;;
15049;SDS011;7622;42.724;23.250;2023-05-07T01:16:26;7.43;;;6.70;;
15049;SDS011;7622;42.724;23.250;2023-05-07T01:18:53;7.97;;;6.50;;
15049;SDS011;7622;42.724;23.250;2023-05-07T01:21:20;7.23;;;6.50;;
15049;SDS011;7622;42.724;23.250;2023-05-07T01:23:53;7.63;;;6.87;;
15049;SDS011;7622;42.724;23.250;2023-05-07T01:26:21;6.93;;;6.13;;
15049;SDS011;7622;42.724;23.250;2023-05-07T01:28:48;7.47;;;6.10;;
15049;SDS011;7622;42.724;23.250;2023-05-07T01:31:15;7.97;;;6.97;;
15049;SDS011;7622;42.724;23.250;2023-05-07T01:33:43;6.60;;;6.00;;
15049;SDS011;7622;42.724;23.250;2023-05-07T01:36:12;6.80;;;6.20;;
15049;SDS011;7622;42.724;23.250;2023-05-07T01:38:40;8.40;;;7.07;;
15049;SDS011;7622;42.724;23.250;2023-05-07T01:41:09;7.20;;;6.50;;
15049;SDS011;7622;42.724;23.250;2023-05-07T01:43:37;7.43;;;6.83;;
15049;SDS011;7622;42.724;23.250;2023-05-07T01:46:06;7.87;;;7.17;;
15049;SDS011;7622;42.724;23.250;2023-05-07T01:48:35;8.33;;;7.63;;
15049;SDS011;7622;42.724;23.250;2023-05-07T01:51:02;7.07;;;6.47;;
15049;SDS011;7622;42.724;23.250;2023-05-07T01:53:30;6.73;;;6.13;;
15049;SDS011;7622;42.724;23.250;2023-05-07T01:56:02;8.67;;;7.87;;
15049;SDS011;7622;42.724;23.250;2023-05-07T01:58:30;8.93;;;7.27;;
15049;SDS011;7622;42.724;23.250;2023-05-07T02:00:57;8.63;;;7.53;;
15049;SDS011;7622;42.724;23.250;2023-05-07T02:03:24;10.93;;;7.30;;
15049;SDS011;7622;42.724;23.250;2023-05-07T02:05:50;8.97;;;7.40;;
15049;SDS011;7622;42.724;23.250;2023-05-07T02:08:17;7.97;;;6.80;;
15049;SDS011;7622;42.724;23.250;2023-05-07T02:10:44;8.40;;;7.20;;
15049;SDS011;7622;42.724;23.250;2023-05-07T02:13:11;8.90;;;8.07;;
15049;SDS011;7622;42.724;23.250;2023-05-07T02:15:39;7.03;;;6.43;;
15049;SDS011;7622;42.724;23.250;2023-05-07T02:18:08;7.60;;;7.00;;
15049;SDS011;7622;42.724;23.250;2023-05-07T02:20:35;8.10;;;7.33;;
15049;SDS011;7622;42.724;23.250;2023-05-07T02:23:02;7.90;;;7.20;;
15049;SDS011;7622;42.724;23.250;2023-05-07T02:25:28;7.43;;;6.77;;
15049;SDS011;7622;42.724;23.250;2023-05-07T02:27:55;8.10;;;7.30;;
15049;SDS011;7622;42.724;23.250;2023-05-07T02:30:22;9.27;;;7.53;;
15049;SDS011;7622;42.724;23.250;2023-05-07T02:32:51;10.47;;;8.13;;
15049;SDS011;7622;42.724;23.250;2023-05-07T02:35:18;9.97;;;7.90;;
15049;SDS011;7622;42.724;23.250;2023-05-07T02:37:45;9.87;;;8.03;;
15049;SDS011;7622;42.724;23.250;2023-05-07T02:40:11;8.67;;;7.77;;
15049;SDS011;7622;42.724;23.250;2023-05-07T02:42:39;8.73;;;7.80;;
15049;SDS011;7622;42.724;23.250;2023-05-07T02:45:06;8.37;;;7.53;;
15049;SDS011;7622;42.724;23.250;2023-05-07T02:47:33;10.73;;;7.63;;
15049;SDS011;7622;42.724;23.250;2023-05-07T02:50:01;8.87;;;7.50;;
15049;SDS011;7622;42.724;23.250;2023-05-07T02:52:28;11.00;;;7.50;;
15049;SDS011;7622;42.724;23.250;2023-05-07T02:54:55;9.23;;;7.70;;
15049;SDS011;7622;42.724;23.250;2023-05-07T02:57:22;12.00;;;7.90;;
15049;SDS011;7622;42.724;23.250;2023-05-07T02:59:49;8.50;;;7.80;;
15049;SDS011;7622;42.724;23.250;2023-05-07T03:02:15;8.70;;;7.83;;
15049;SDS011;7622;42.724;23.250;2023-05-07T03:04:42;7.70;;;6.87;;
15049;SDS011;7622;42.724;23.250;2023-05-07T03:07:10;8.40;;;7.60;;
15049;SDS011;7622;42.724;23.250;2023-05-07T03:09:37;8.40;;;7.57;;
15049;SDS011;7622;42.724;23.250;2023-05-07T03:12:04;8.80;;;7.33;;
15049;SDS011;7622;42.724;23.250;2023-05-07T03:14:31;7.93;;;7.13;;
15049;SDS011;7622;42.724;23.250;2023-05-07T03:16:58;8.97;;;8.07;;
15049;SDS011;7622;42.724;23.250;2023-05-07T03:19:24;11.07;;;7.87;;
15049;SDS011;7622;42.724;23.250;2023-05-07T03:21:51;8.40;;;7.57;;
15049;SDS011;7622;42.724;23.250;2023-05-07T03:24:19;8.10;;;7.27;;
15049;SDS011;7622;42.724;23.250;2023-05-07T03:26:46;9.57;;;8.07;;
15049;SDS011;7622;42.724;23.250;2023-05-07T03:29:13;10.30;;;8.03;;
15049;SDS011;7622;42.724;23.250;2023-05-07T03:31:40;9.30;;;7.97;;
15049;SDS011;7622;42.724;23.250;2023-05-07T03:34:07;10.17;;;7.80;;
15049;SDS011;7622;42.724;23.250;2023-05-07T03:36:33;8.57;;;7.87;;
15049;SDS011;7622;42.724;23.250;2023-05-07T03:39:00;7.33;;;6.73;;
15049;SDS011;7622;42.724;23.250;2023-05-07T03:41:28;8.83;;;7.83;;
15049;SDS011;7622;42.724;23.250;2023-05-07T03:43:55;9.43;;;7.97;;
15049;SDS011;7622;42.724;23.250;2023-05-07T03:46:22;9.53;;;7.40;;
15049;SDS011;7622;42.724;23.250;2023-05-07T03:48:51;8.80;;;7.33;;
15049;SDS011;7622;42.724;23.250;2023-05-07T03:51:17;7.90;;;7.10;;
15049;SDS011;7622;42.724;23.250;2023-05-07T03:53:44;8.97;;;8.10;;
15049;SDS011;7622;42.724;23.250;2023-05-07T03:56:11;8.27;;;7.47;;
15049;SDS011;7622;42.724;23.250;2023-05-07T03:58:39;8.53;;;7.20;;
15049;SDS011;7622;42.724;23.250;2023-05-07T04:01:06;7.00;;;6.40;;
15049;SDS011;7622;42.724;23.250;2023-05-07T04:03:33;7.47;;;6.50;;
15049;SDS011;7622;42.724;23.250;2023-05-07T04:05:59;8.50;;;7.07;;
15049;SDS011;7622;42.724;23.250;2023-05-07T04:08:26;8.97;;;7.03;;
15049;SDS011;7622;42.724;23.250;2023-05-07T04:10:56;24.07;;;7.80;;
15049;SDS011;7622;42.724;23.250;2023-05-07T04:13:24;8.07;;;7.13;;
15049;SDS011;7622;42.724;23.250;2023-05-07T04:15:52;8.50;;;6.57;;
15049;SDS011;7622;42.724;23.250;2023-05-07T04:18:19;9.50;;;7.70;;
15049;SDS011;7622;42.724;23.250;2023-05-07T04:20:46;11.60;;;7.33;;
15049;SDS011;7622;42.724;23.250;2023-05-07T04:23:14;8.53;;;7.07;;
15049;SDS011;7622;42.724;23.250;2023-05-07T04:25:41;7.80;;;7.07;;
15049;SDS011;7622;42.724;23.250;2023-05-07T04:28:07;7.70;;;6.80;;
15049;SDS011;7622;42.724;23.250;2023-05-07T04:30:34;8.33;;;7.00;;
15049;SDS011;7622;42.724;23.250;2023-05-07T04:33:02;8.40;;;6.37;;
15049;SDS011;7622;42.724;23.250;2023-05-07T04:35:29;7.60;;;6.90;;
15049;SDS011;7622;42.724;23.250;2023-05-07T04:37:56;6.83;;;6.27;;
15049;SDS011;7622;42.724;23.250;2023-05-07T04:40:22;8.63;;;7.10;;
15049;SDS011;7622;42.724;23.250;2023-05-07T04:42:49;8.07;;;7.30;;
15049;SDS011;7622;42.724;23.250;2023-05-07T04:45:17;7.90;;;7.20;;
15049;SDS011;7622;42.724;23.250;2023-05-07T04:47:46;8.17;;;6.73;;
15049;SDS011;7622;42.724;23.250;2023-05-07T04:50:16;7.13;;;6.43;;
15049;SDS011;7622;42.724;23.250;2023-05-07T04:52:44;29.47;;;7.27;;
15049;SDS011;7622;42.724;23.250;2023-05-07T04:55:11;6.87;;;6.20;;
15049;SDS011;7622;42.724;23.250;2023-05-07T04:57:38;7.50;;;6.53;;
15049;SDS011;7622;42.724;23.250;2023-05-07T05:00:06;7.77;;;7.00;;
15049;SDS011;7622;42.724;23.250;2023-05-07T05:02:35;7.63;;;6.57;;
15049;SDS011;7622;42.724;23.250;2023-05-07T05:05:02;8.60;;;7.23;;
15049;SDS011;7622;42.724;23.250;2023-05-07T05:07:30;7.53;;;6.70;;
15049;SDS011;7622;42.724;23.250;2023-05-07T05:09:57;15.43;;;6.93;;
15049;SDS011;7622;42.724;23.250;2023-05-07T05:12:24;8.00;;;6.80;;
15049;SDS011;7622;42.724;23.250;2023-05-07T05:14:50;8.80;;;7.20;;
15049;SDS011;7622;42.724;23.250;2023-05-07T05:17:17;7.93;;;7.13;;
15049;SDS011;7622;42.724;23.250;2023-05-07T05:19:44;8.93;;;7.33;;
15049;SDS011;7622;42.724;23.250;2023-05-07T05:22:11;7.90;;;7.20;;
15049;SDS011;7622;42.724;23.250;2023-05-07T05:24:39;7.77;;;7.07;;
15049;SDS011;7622;42.724;23.250;2023-05-07T05:27:05;7.10;;;6.43;;
15049;SDS011;7622;42.724;23.250;2023-05-07T05:29:32;9.13;;;7.10;;
15049;SDS011;7622;42.724;23.250;2023-05-07T05:31:59;11.03;;;8.10;;
15049;SDS011;7622;42.724;23.250;2023-05-07T05:34:26;7.90;;;7.27;;
15049;SDS011;7622;42.724;23.250;2023-05-07T05:36:53;8.50;;;7.20;;
15049;SDS011;7622;42.724;23.250;2023-05-07T05:39:19;11.10;;;7.73;;
15049;SDS011;7622;42.724;23.250;2023-05-07T05:41:49;8.50;;;7.57;;
15049;SDS011;7622;42.724;23.250;2023-05-07T05:44:16;7.77;;;7.07;;
15049;SDS011;7622;42.724;23.250;2023-05-07T05:46:43;8.57;;;6.83;;
15049;SDS011;7622;42.724;23.250;2023-05-07T05:49:09;8.70;;;7.77;;
15049;SDS011;7622;42.724;23.250;2023-05-07T05:51:36;8.33;;;7.50;;
15049;SDS011;7622;42.724;23.250;2023-05-07T05:54:03;9.83;;;7.63;;
15049;SDS011;7622;42.724;23.250;2023-05-07T05:56:30;9.37;;;8.30;;
15049;SDS011;7622;42.724;23.250;2023-05-07T05:58:58;9.53;;;8.67;;
15049;SDS011;7622;42.724;23.250;2023-05-07T06:01:25;12.43;;;7.77;;
15049;SDS011;7622;42.724;23.250;2023-05-07T06:03:52;8.70;;;8.00;;
15049;SDS011;7622;42.724;23.250;2023-05-07T06:06:20;12.10;;;8.93;;
15049;SDS011;7622;42.724;23.250;2023-05-07T06:08:46;9.17;;;8.07;;
15049;SDS011;7622;42.724;23.250;2023-05-07T06:11:13;9.60;;;7.50;;
15049;SDS011;7622;42.724;23.250;2023-05-07T06:13:40;9.73;;;7.90;;
15049;SDS011;7622;42.724;23.250;2023-05-07T06:16:08;9.87;;;8.20;;
15049;SDS011;7622;42.724;23.250;2023-05-07T06:18:35;8.53;;;7.77;;
15049;SDS011;7622;42.724;23.250;2023-05-07T06:21:02;11.47;;;8.73;;
15049;SDS011;7622;42.724;23.250;2023-05-07T06:23:28;9.83;;;8.70;;
15049;SDS011;7622;42.724;23.250;2023-05-07T06:25:55;9.70;;;8.70;;
15049;SDS011;7622;42.724;23.250;2023-05-07T06:28:22;13.33;;;8.43;;
15049;SDS011;7622;42.724;23.250;2023-05-07T06:30:49;10.17;;;8.53;;
15049;SDS011;7622;42.724;23.250;2023-05-07T06:33:17;11.10;;;8.03;;
15049;SDS011;7622;42.724;23.250;2023-05-07T06:35:44;9.60;;;8.70;;
15049;SDS011;7622;42.724;23.250;2023-05-07T06:38:11;9.20;;;8.30;;
15049;SDS011;7622;42.724;23.250;2023-05-07T06:40:38;8.70;;;7.90;;
15049;SDS011;7622;42.724;23.250;2023-05-07T06:43:05;8.37;;;7.60;;
15049;SDS011;7622;42.724;23.250;2023-05-07T06:45:31;8.93;;;8.03;;
15049;SDS011;7622;42.724;23.250;2023-05-07T06:47:58;11.90;;;8.37;;
15049;SDS011;7622;42.724;23.250;2023-05-07T06:50:26;8.73;;;7.90;;
15049;SDS011;7622;42.724;23.250;2023-05-07T06:52:53;10.90;;;9.50;;
15049;SDS011;7622;42.724;23.250;2023-05-07T06:55:20;11.73;;;9.43;;
15049;SDS011;7622;42.724;23.250;2023-05-07T06:57:49;10.00;;;8.93;;
15049;SDS011;7622;42.724;23.250;2023-05-07T07:00:16;10.67;;;9.27;;
15049;SDS011;7622;42.724;23.250;2023-05-07T07:02:43;10.43;;;9.47;;
15049;SDS011;7622;42.724;23.250;2023-05-07T07:05:10;11.57;;;9.23;;
15049;SDS011;7622;42.724;23.250;2023-05-07T07:07:38;9.70;;;8.80;;
15049;SDS011;7622;42.724;23.250;2023-05-07T07:10:05;10.17;;;8.90;;
15049;SDS011;7622;42.724;23.250;2023-05-07T07:12:33;9.63;;;8.67;;
15049;SDS011;7622;42.724;23.250;2023-05-07T07:14:59;8.60;;;7.90;;
15049;SDS011;7622;42.724;23.250;2023-05-07T07:17:27;13.70;;;9.47;;
15049;SDS011;7622;42.724;23.250;2023-05-07T07:19:54;9.73;;;8.37;;
15049;SDS011;7622;42.724;23.250;2023-05-07T07:22:20;9.23;;;7.60;;
15049;SDS011;7622;42.724;23.250;2023-05-07T07:24:49;16.23;;;8.20;;
15049;SDS011;7622;42.724;23.250;2023-05-07T07:27:16;8.33;;;7.53;;
15049;SDS011;7622;42.724;23.250;2023-05-07T07:29:43;19.27;;;9.17;;
15049;SDS011;7622;42.724;23.250;2023-05-07T07:32:09;9.23;;;8.27;;
15049;SDS011;7622;42.724;23.250;2023-05-07T07:34:36;8.23;;;7.47;;
15049;SDS011;7622;42.724;23.250;2023-05-07T07:37:03;8.57;;;7.83;;
15049;SDS011;7622;42.724;23.250;2023-05-07T07:39:31;9.00;;;8.10;;
15049;SDS011;7622;42.724;23.250;2023-05-07T07:41:59;8.60;;;7.73;;
15049;SDS011;7622;42.724;23.250;2023-05-07T07:44:26;12.20;;;7.40;;
15049;SDS011;7622;42.724;23.250;2023-05-07T07:46:54;8.20;;;7.40;;
15049;SDS011;7622;42.724;23.250;2023-05-07T07:49:21;8.70;;;8.10;;
15049;SDS011;7622;42.724;23.250;2023-05-07T07:51:47;8.83;;;8.00;;
15049;SDS011;7622;42.724;23.250;2023-05-07T07:54:14;10.30;;;8.17;;
15049;SDS011;7622;42.724;23.250;2023-05-07T07:56:41;8.73;;;7.93;;
15049;SDS011;7622;42.724;23.250;2023-05-07T07:59:09;8.77;;;7.97;;
15049;SDS011;7622;42.724;23.250;2023-05-07T08:01:36;9.47;;;7.50;;
15049;SDS011;7622;42.724;23.250;2023-05-07T08:04:03;7.40;;;6.77;;
15049;SDS011;7622;42.724;23.250;2023-05-07T08:06:30;7.93;;;7.07;;
15049;SDS011;7622;42.724;23.250;2023-05-07T08:08:57;9.10;;;6.83;;
15049;SDS011;7622;42.724;23.250;2023-05-07T08:11:24;7.67;;;7.03;;
15049;SDS011;7622;42.724;23.250;2023-05-07T08:13:51;7.20;;;6.60;;
15049;SDS011;7622;42.724;23.250;2023-05-07T08:16:19;7.27;;;6.57;;
15049;SDS011;7622;42.724;23.250;2023-05-07T08:18:46;7.80;;;6.50;;
15049;SDS011;7622;42.724;23.250;2023-05-07T08:21:13;7.43;;;6.40;;
15049;SDS011;7622;42.724;23.250;2023-05-07T08:23:41;10.50;;;6.33;;
15049;SDS011;7622;42.724;23.250;2023-05-07T08:26:08;6.30;;;5.70;;
15049;SDS011;7622;42.724;23.250;2023-05-07T08:28:35;7.47;;;5.60;;
15049;SDS011;7622;42.724;23.250;2023-05-07T08:31:01;9.80;;;5.80;;
15049;SDS011;7622;42.724;23.250;2023-05-07T08:33:30;8.10;;;5.57;;
15049;SDS011;7622;42.724;23.250;2023-05-07T08:35:56;6.47;;;5.97;;
15049;SDS011;7622;42.724;23.250;2023-05-07T08:38:23;6.30;;;5.33;;
15049;SDS011;7622;42.724;23.250;2023-05-07T08:40:50;5.80;;;5.20;;
15049;SDS011;7622;42.724;23.250;2023-05-07T08:43:17;6.60;;;5.33;;
15049;SDS011;7622;42.724;23.250;2023-05-07T08:45:45;6.17;;;4.13;;
15049;SDS011;7622;42.724;23.250;2023-05-07T08:48:15;5.33;;;4.80;;
15049;SDS011;7622;42.724;23.250;2023-05-07T08:50:44;6.97;;;4.50;;
15049;SDS011;7622;42.724;23.250;2023-05-07T08:53:11;4.47;;;4.10;;
15049;SDS011;7622;42.724;23.250;2023-05-07T08:55:39;6.60;;;4.00;;
15049;SDS011;7622;42.724;23.250;2023-05-07T08:58:06;6.80;;;4.70;;
15049;SDS011;7622;42.724;23.250;2023-05-07T09:00:33;5.33;;;4.83;;
15049;SDS011;7622;42.724;23.250;2023-05-07T09:03:00;5.72;;;4.43;;
15049;SDS011;7622;42.724;23.250;2023-05-07T09:05:28;6.55;;;4.57;;
15049;SDS011;7622;42.724;23.250;2023-05-07T09:07:58;19.87;;;5.73;;
15049;SDS011;7622;42.724;23.250;2023-05-07T09:10:25;13.00;;;5.60;;
15049;SDS011;7622;42.724;23.250;2023-05-07T09:12:52;6.43;;;4.90;;
15049;SDS011;7622;42.724;23.250;2023-05-07T09:15:19;4.97;;;4.57;;
15049;SDS011;7622;42.724;23.250;2023-05-07T09:17:46;4.87;;;4.43;;
15049;SDS011;7622;42.724;23.250;2023-05-07T09:20:13;8.53;;;4.40;;
15049;SDS011;7622;42.724;23.250;2023-05-07T09:22:40;4.90;;;4.50;;
15049;SDS011;7622;42.724;23.250;2023-05-07T09:25:08;4.70;;;4.40;;
15049;SDS011;7622;42.724;23.250;2023-05-07T09:27:35;5.07;;;4.67;;
15049;SDS011;7622;42.724;23.250;2023-05-07T09:30:06;5.60;;;5.10;;
15049;SDS011;7622;42.724;23.250;2023-05-07T09:32:34;8.20;;;5.20;;
15049;SDS011;7622;42.724;23.250;2023-05-07T09:35:03;5.70;;;4.30;;
15049;SDS011;7622;42.724;23.250;2023-05-07T09:37:30;5.32;;;4.25;;
15049;SDS011;7622;42.724;23.250;2023-05-07T09:39:57;4.30;;;4.00;;
15049;SDS011;7622;42.724;23.250;2023-05-07T09:42:26;4.72;;;4.22;;
15049;SDS011;7622;42.724;23.250;2023-05-07T09:44:53;9.48;;;4.45;;
15049;SDS011;7622;42.724;23.250;2023-05-07T09:47:20;6.20;;;4.88;;
15049;SDS011;7622;42.724;23.250;2023-05-07T09:49:49;6.87;;;3.90;;
15049;SDS011;7622;42.724;23.250;2023-05-07T09:52:21;4.77;;;4.27;;
15049;SDS011;7622;42.724;23.250;2023-05-07T09:54:50;4.70;;;4.40;;
15049;SDS011;7622;42.724;23.250;2023-05-07T09:57:18;3.87;;;3.53;;
15049;SDS011;7622;42.724;23.250;2023-05-07T09:59:48;3.80;;;3.60;;
15049;SDS011;7622;42.724;23.250;2023-05-07T10:02:18;6.07;;;3.90;;
15049;SDS011;7622;42.724;23.250;2023-05-07T10:04:46;3.60;;;3.30;;
15049;SDS011;7622;42.724;23.250;2023-05-07T10:07:16;4.78;;;3.05;;
15049;SDS011;7622;42.724;23.250;2023-05-07T10:09:46;3.55;;;3.35;;
15049;SDS011;7622;42.724;23.250;2023-05-07T10:12:14;4.60;;;3.65;;
15049;SDS011;7622;42.724;23.250;2023-05-07T10:14:41;4.53;;;3.63;;
15049;SDS011;7622;42.724;23.250;2023-05-07T10:17:09;3.50;;;3.30;;
15049;SDS011;7622;42.724;23.250;2023-05-07T10:19:38;5.30;;;3.20;;
15049;SDS011;7622;42.724;23.250;2023-05-07T10:22:05;3.33;;;3.03;;
15049;SDS011;7622;42.724;23.250;2023-05-07T10:24:34;3.55;;;2.78;;
15049;SDS011;7622;42.724;23.250;2023-05-07T10:27:03;2.90;;;2.70;;
15049;SDS011;7622;42.724;23.250;2023-05-07T10:29:36;3.03;;;2.83;;
15049;SDS011;7622;42.724;23.250;2023-05-07T10:32:17;3.00;;;2.90;;
15049;SDS011;7622;42.724;23.250;2023-05-07T10:34:57;3.00;;;2.80;;
15049;SDS011;7622;42.724;23.250;2023-05-07T10:37:28;3.20;;;2.27;;
15049;SDS011;7622;42.724;23.250;2023-05-07T10:39:56;2.67;;;2.47;;
15049;SDS011;7622;42.724;23.250;2023-05-07T10:42:23;2.97;;;2.77;;
15049;SDS011;7622;42.724;23.250;2023-05-07T10:44:50;5.80;;;2.90;;
15049;SDS011;7622;42.724;23.250;2023-05-07T10:47:19;2.80;;;2.60;;
15049;SDS011;7622;42.724;23.250;2023-05-07T10:53:00;2.70;;;2.50;;
15049;SDS011;7622;42.724;23.250;2023-05-07T10:55:49;4.75;;;3.17;;
15049;SDS011;7622;42.724;23.250;2023-05-07T10:58:23;5.72;;;2.45;;
15049;SDS011;7622;42.724;23.250;2023-05-07T11:00:55;2.70;;;2.50;;
15049;SDS011;7622;42.724;23.250;2023-05-07T11:03:24;5.60;;;3.33;;
15049;SDS011;7622;42.724;23.250;2023-05-07T11:08:52;4.43;;;2.40;;
15049;SDS011;7622;42.724;23.250;2023-05-07T11:11:20;3.55;;;2.60;;
15049;SDS011;7622;42.724;23.250;2023-05-07T11:14:10;2.95;;;2.60;;
15049;SDS011;7622;42.724;23.250;2023-05-07T11:16:37;3.27;;;2.37;;
15049;SDS011;7622;42.724;23.250;2023-05-07T11:19:06;3.63;;;2.63;;
15049;SDS011;7622;42.724;23.250;2023-05-07T11:21:33;2.80;;;2.60;;
15049;SDS011;7622;42.724;23.250;2023-05-07T11:24:01;3.13;;;2.87;;
15049;SDS011;7622;42.724;23.250;2023-05-07T11:26:29;2.70;;;2.50;;
15049;SDS011;7622;42.724;23.250;2023-05-07T11:28:57;2.90;;;2.70;;
15049;SDS011;7622;42.724;23.250;2023-05-07T11:31:25;3.20;;;2.63;;
15049;SDS011;7622;42.724;23.250;2023-05-07T11:33:54;3.87;;;2.73;;
15049;SDS011;7622;42.724;23.250;2023-05-07T11:36:30;2.97;;;2.77;;
15049;SDS011;7622;42.724;23.250;2023-05-07T11:38:58;2.83;;;2.63;;
15049;SDS011;7622;42.724;23.250;2023-05-07T11:41:32;5.13;;;2.90;;
15049;SDS011;7622;42.724;23.250;2023-05-07T11:44:00;2.87;;;2.60;;
15049;SDS011;7622;42.724;23.250;2023-05-07T11:46:27;6.70;;;4.20;;
15049;SDS011;7622;42.724;23.250;2023-05-07T11:48:54;3.00;;;2.80;;
15049;SDS011;7622;42.724;23.250;2023-05-07T11:51:22;2.78;;;2.58;;
15049;SDS011;7622;42.724;23.250;2023-05-07T11:53:52;2.90;;;2.70;;
15049;SDS011;7622;42.724;23.250;2023-05-07T11:56:19;5.57;;;2.65;;
15049;SDS011;7622;42.724;23.250;2023-05-07T11:58:47;5.13;;;2.63;;
15049;SDS011;7622;42.724;23.250;2023-05-07T12:01:15;2.45;;;2.35;;
15049;SDS011;7622;42.724;23.250;2023-05-07T12:03:43;2.43;;;2.30;;
15049;SDS011;7622;42.724;23.250;2023-05-07T12:06:12;3.78;;;2.60;;
15049;SDS011;7622;42.724;23.250;2023-05-07T12:08:41;3.70;;;2.90;;
15049;SDS011;7622;42.724;23.250;2023-05-07T12:11:09;3.10;;;2.50;;
15049;SDS011;7622;42.724;23.250;2023-05-07T12:13:40;2.97;;;2.67;;
15049;SDS011;7622;42.724;23.250;2023-05-07T12:16:07;2.90;;;2.70;;
15049;SDS011;7622;42.724;23.250;2023-05-07T12:18:35;3.23;;;2.13;;
15049;SDS011;7622;42.724;23.250;2023-05-07T12:21:03;2.73;;;2.50;;
15049;SDS011;7622;42.724;23.250;2023-05-07T12:23:31;2.80;;;2.50;;
15049;SDS011;7622;42.724;23.250;2023-05-07T12:25:59;3.10;;;2.60;;
15049;SDS011;7622;42.724;23.250;2023-05-07T12:28:27;2.47;;;2.27;;
15049;SDS011;7622;42.724;23.250;2023-05-07T12:30:55;2.87;;;2.50;;
15049;SDS011;7622;42.724;23.250;2023-05-07T12:33:23;2.70;;;2.50;;
15049;SDS011;7622;42.724;23.250;2023-05-07T12:35:53;2.50;;;2.40;;
15049;SDS011;7622;42.724;23.250;2023-05-07T12:38:21;3.63;;;2.40;;
15049;SDS011;7622;42.724;23.250;2023-05-07T12:40:48;2.90;;;2.70;;
15049;SDS011;7622;42.724;23.250;2023-05-07T12:43:17;2.27;;;2.17;;
15049;SDS011;7622;42.724;23.250;2023-05-07T12:45:46;2.70;;;2.50;;
15049;SDS011;7622;42.724;23.250;2023-05-07T12:48:13;2.60;;;2.50;;
15049;SDS011;7622;42.724;23.250;2023-05-07T12:50:40;2.83;;;2.47;;
15049;SDS011;7622;42.724;23.250;2023-05-07T12:53:07;2.73;;;2.50;;
15049;SDS011;7622;42.724;23.250;2023-05-07T12:55:40;2.60;;;2.40;;
15049;SDS011;7622;42.724;23.250;2023-05-07T12:58:08;2.87;;;2.67;;
15049;SDS011;7622;42.724;23.250;2023-05-07T13:00:35;3.80;;;2.70;;
15049;SDS011;7622;42.724;23.250;2023-05-07T13:03:05;2.83;;;2.63;;
15049;SDS011;7622;42.724;23.250;2023-05-07T13:05:31;2.80;;;2.53;;
15049;SDS011;7622;42.724;23.250;2023-05-07T13:07:58;3.00;;;2.80;;
15049;SDS011;7622;42.724;23.250;2023-05-07T13:10:26;3.10;;;2.73;;
15049;SDS011;7622;42.724;23.250;2023-05-07T13:12:53;2.53;;;2.43;;
15049;SDS011;7622;42.724;23.250;2023-05-07T13:15:20;2.80;;;2.53;;
15049;SDS011;7622;42.724;23.250;2023-05-07T13:17:48;2.73;;;2.53;;
15049;SDS011;7622;42.724;23.250;2023-05-07T13:20:16;3.00;;;2.80;;
15049;SDS011;7622;42.724;23.250;2023-05-07T13:22:43;6.47;;;2.60;;
15049;SDS011;7622;42.724;23.250;2023-05-07T13:25:09;2.67;;;2.30;;
15049;SDS011;7622;42.724;23.250;2023-05-07T13:27:36;3.40;;;2.77;;
15049;SDS011;7622;42.724;23.250;2023-05-07T13:30:03;2.50;;;2.30;;
15049;SDS011;7622;42.724;23.250;2023-05-07T13:32:31;2.30;;;2.20;;
15049;SDS011;7622;42.724;23.250;2023-05-07T13:34:58;2.77;;;2.57;;
15049;SDS011;7622;42.724;23.250;2023-05-07T13:37:26;3.07;;;2.77;;
15049;SDS011;7622;42.724;23.250;2023-05-07T13:39:53;15.40;;;3.40;;
15049;SDS011;7622;42.724;23.250;2023-05-07T13:42:20;2.63;;;2.43;;
15049;SDS011;7622;42.724;23.250;2023-05-07T13:44:46;4.00;;;2.90;;
15049;SDS011;7622;42.724;23.250;2023-05-07T13:47:13;6.33;;;3.00;;
15049;SDS011;7622;42.724;23.250;2023-05-07T13:49:40;2.73;;;2.53;;
15049;SDS011;7622;42.724;23.250;2023-05-07T13:52:07;3.80;;;2.40;;
15049;SDS011;7622;42.724;23.250;2023-05-07T13:54:35;3.40;;;3.10;;
15049;SDS011;7622;42.724;23.250;2023-05-07T13:57:01;2.93;;;2.50;;
15049;SDS011;7622;42.724;23.250;2023-05-07T13:59:28;2.83;;;2.63;;
15049;SDS011;7622;42.724;23.250;2023-05-07T14:01:55;4.27;;;2.60;;
15049;SDS011;7622;42.724;23.250;2023-05-07T14:04:22;3.23;;;2.70;;
15049;SDS011;7622;42.724;23.250;2023-05-07T14:06:48;3.50;;;2.67;;
15049;SDS011;7622;42.724;23.250;2023-05-07T14:09:15;3.60;;;2.83;;
15049;SDS011;7622;42.724;23.250;2023-05-07T14:11:43;2.37;;;2.17;;
15049;SDS011;7622;42.724;23.250;2023-05-07T14:14:12;2.70;;;2.60;;
15049;SDS011;7622;42.724;23.250;2023-05-07T14:16:39;2.63;;;2.43;;
15049;SDS011;7622;42.724;23.250;2023-05-07T14:19:06;2.80;;;2.30;;
15049;SDS011;7622;42.724;23.250;2023-05-07T14:21:32;2.93;;;2.63;;
15049;SDS011;7622;42.724;23.250;2023-05-07T14:23:59;2.97;;;2.70;;
15049;SDS011;7622;42.724;23.250;2023-05-07T14:26:26;3.97;;;2.80;;
15049;SDS011;7622;42.724;23.250;2023-05-07T14:28:54;3.20;;;2.90;;
15049;SDS011;7622;42.724;23.250;2023-05-07T14:31:23;3.20;;;2.97;;
15049;SDS011;7622;42.724;23.250;2023-05-07T14:33:50;3.10;;;2.90;;
15049;SDS011;7622;42.724;23.250;2023-05-07T14:36:17;3.07;;;2.77;;
15049;SDS011;7622;42.724;23.250;2023-05-07T14:38:46;3.03;;;2.83;;
15049;SDS011;7622;42.724;23.250;2023-05-07T14:41:13;6.97;;;3.23;;
15049;SDS011;7622;42.724;23.250;2023-05-07T14:43:40;4.10;;;2.90;;
15049;SDS011;7622;42.724;23.250;2023-05-07T14:46:08;3.53;;;3.33;;
15049;SDS011;7622;42.724;23.250;2023-05-07T14:48:34;3.70;;;3.20;;
15049;SDS011;7622;42.724;23.250;2023-05-07T14:51:01;3.50;;;3.20;;
15049;SDS011;7622;42.724;23.250;2023-05-07T14:53:28;3.23;;;2.40;;